createdAt,value
2024-04-25T00:03:28.025Z,1.36
2024-04-25T00:08:32.896Z,1.69
2024-04-25T00:13:37.726Z,1.68
2024-04-25T00:18:42.500Z,1.59
2024-04-25T00:23:47.323Z,1.68
2024-04-25T00:28:52.383Z,1.83
2024-04-25T00:33:57.243Z,2.06
2024-04-25T00:39:03.287Z,1.91
2024-04-25T00:44:08.522Z,1.86
2024-04-25T00:49:15.227Z,1.91
2024-04-25T00:54:20.696Z,2.16
2024-04-25T00:59:27.393Z,2.25
2024-04-25T01:04:34.381Z,2.07
2024-04-25T01:09:39.563Z,2.22
2024-04-25T01:14:44.361Z,2.13
2024-04-25T01:19:49.225Z,2.02
2024-04-25T01:24:54.899Z,2.05
2024-04-25T01:30:00.318Z,2.12
2024-04-25T01:35:07.783Z,2.08
2024-04-25T01:40:13.264Z,2.09
2024-04-25T01:45:18.122Z,2.19
2024-04-25T01:50:22.984Z,2.22
2024-04-25T01:55:28.660Z,2.20
2024-04-25T02:00:33.481Z,2.16
2024-04-25T02:05:39.383Z,2.36
2024-04-25T02:10:45.343Z,2.15
2024-04-25T02:15:50.183Z,2.39
2024-04-25T02:21:10.805Z,2.27
2024-04-25T02:26:15.610Z,2.09
2024-04-25T02:31:22.246Z,2.15
2024-04-25T02:36:27.119Z,2.16
2024-04-25T02:41:31.988Z,2.16
2024-04-25T02:46:36.876Z,2.12
2024-04-25T02:51:42.893Z,2.05
2024-04-25T02:56:47.760Z,1.91
2024-04-25T03:01:52.856Z,1.93
2024-04-25T03:06:57.706Z,1.93
2024-04-25T03:12:02.558Z,1.94
2024-04-25T03:17:07.565Z,1.96
2024-04-25T03:22:12.374Z,2.01
2024-04-25T03:27:17.198Z,2.03
2024-04-25T03:32:22.248Z,2.09
2024-04-25T03:37:27.588Z,2.04
2024-04-25T03:42:32.361Z,1.96
2024-04-25T03:47:37.605Z,2.01
2024-04-25T03:52:42.494Z,1.98
2024-04-25T03:57:47.316Z,2.13
2024-04-25T04:02:52.242Z,2.07
2024-04-25T04:07:57.090Z,2.01
2024-04-25T04:13:01.953Z,2.06
2024-04-25T04:18:07.136Z,2.14
2024-04-25T04:23:11.981Z,2.07
2024-04-25T04:28:16.776Z,2.04
2024-04-25T04:33:22.214Z,2.06
2024-04-25T04:38:27.163Z,2.03
2024-04-25T04:43:31.974Z,2.00
2024-04-25T04:48:36.892Z,2.03
2024-04-25T04:53:41.915Z,2.15
2024-04-25T04:58:47.542Z,2.14
2024-04-25T05:03:52.388Z,2.22
2024-04-25T05:08:57.259Z,2.30
2024-04-25T05:14:04.444Z,2.36
2024-04-25T05:19:09.350Z,2.34
2024-04-25T05:24:14.124Z,2.27
2024-04-25T05:29:19.146Z,2.21
2024-04-25T05:34:23.939Z,2.35
2024-04-25T05:39:28.779Z,2.39
2024-04-25T05:44:33.632Z,2.36
2024-04-25T05:49:38.462Z,2.43
2024-04-25T05:54:43.304Z,2.42
2024-04-25T05:59:48.678Z,2.57
2024-04-25T06:04:53.527Z,2.65
2024-04-25T06:09:58.596Z,2.64
2024-04-25T06:15:03.417Z,2.86
2024-04-25T06:20:08.516Z,2.93
2024-04-25T06:25:13.412Z,3.24
2024-04-25T06:30:18.737Z,3.21
2024-04-25T06:35:23.556Z,3.11
2024-04-25T06:40:28.429Z,3.13
2024-04-25T06:45:33.375Z,3.29
2024-04-25T06:50:38.780Z,3.31
2024-04-25T06:55:44.720Z,3.52
2024-04-25T07:00:49.550Z,3.52
2024-04-25T07:05:54.414Z,3.69
2024-04-25T07:10:59.283Z,3.90
2024-04-25T07:16:05.570Z,3.97
2024-04-25T07:21:10.434Z,4.02
2024-04-25T07:26:15.303Z,4.05
2024-04-25T07:31:20.286Z,4.38
2024-04-25T07:36:25.358Z,4.46
2024-04-25T07:41:32.759Z,4.32
2024-04-25T07:46:37.837Z,4.73
2024-04-25T07:51:42.920Z,4.91
2024-04-25T07:56:48.178Z,4.67
2024-04-25T08:15:57.100Z,4.53
2024-04-25T08:21:02.749Z,4.91
2024-04-25T08:26:08.077Z,5.03
2024-04-25T08:31:12.907Z,5.13
2024-04-25T08:36:17.741Z,5.32
2024-04-25T08:41:23.895Z,5.88
2024-04-25T08:46:30.899Z,5.71
2024-04-25T08:51:36.904Z,5.84
2024-04-25T08:56:42.088Z,5.50
2024-04-25T09:01:47.809Z,5.61
2024-04-25T09:06:52.687Z,5.89
2024-04-25T09:11:57.907Z,6.04
2024-04-25T09:17:02.818Z,6.17
2024-04-25T09:22:07.671Z,6.62
2024-04-25T09:27:12.482Z,6.30
2024-04-25T09:32:20.669Z,6.77
2024-04-25T09:37:25.747Z,6.47
2024-04-25T09:42:31.639Z,6.70
2024-04-25T09:47:57.907Z,6.86
2024-04-25T09:53:10.066Z,6.59
2024-04-25T09:58:36.530Z,6.40
2024-04-25T10:03:42.021Z,6.04
2024-04-25T10:08:48.086Z,6.39
2024-04-25T10:13:56.143Z,6.36
2024-04-25T10:19:01.191Z,6.10
2024-04-25T10:24:12.377Z,6.40
2024-04-25T10:29:17.331Z,6.32
2024-04-25T10:34:22.195Z,6.42
2024-04-25T10:39:27.331Z,7.23
2024-04-25T10:44:32.200Z,7.57
2024-04-25T10:49:38.491Z,7.23
2024-04-25T10:54:43.526Z,6.69
2024-04-25T10:59:48.360Z,6.91
2024-04-25T11:04:53.240Z,6.14
2024-04-25T11:09:59.777Z,6.04
2024-04-25T11:15:05.736Z,6.18
2024-04-25T11:20:11.731Z,6.06
2024-04-25T11:25:21.203Z,5.96
2024-04-25T11:30:28.570Z,6.10
2024-04-25T11:35:33.963Z,6.33
2024-04-25T11:40:41.386Z,6.48
2024-04-25T11:45:47.706Z,6.25
2024-04-25T11:50:52.782Z,6.32
2024-04-25T11:55:57.643Z,6.69
2024-04-25T12:01:02.671Z,6.83
2024-04-25T12:06:07.473Z,7.42
2024-04-25T12:11:12.278Z,7.25
2024-04-25T12:16:17.176Z,7.27
2024-04-25T12:21:21.982Z,7.05
2024-04-25T12:26:27.044Z,6.37
2024-04-25T12:31:31.890Z,6.11
2024-04-25T12:36:36.697Z,6.00
2024-04-25T12:41:41.969Z,5.92
2024-04-25T12:46:48.964Z,5.64
2024-04-25T12:51:54.057Z,6.01
2024-04-25T12:56:58.940Z,6.29
2024-04-25T13:02:03.943Z,6.27
2024-04-25T13:07:09.099Z,6.68
2024-04-25T13:12:13.940Z,6.86
2024-04-25T13:17:18.795Z,7.67
2024-04-25T13:22:23.653Z,7.95
2024-04-25T13:27:29.862Z,7.38
2024-04-25T13:32:34.750Z,7.02
2024-04-25T13:37:39.617Z,7.45
2024-04-25T13:42:46.166Z,7.43
2024-04-25T13:47:51.152Z,7.72
2024-04-25T13:52:56.112Z,8.04
2024-04-25T13:58:00.963Z,7.49
2024-04-25T14:03:05.812Z,7.55
2024-04-25T14:08:10.875Z,7.50
2024-04-25T14:13:15.683Z,7.56
2024-04-25T14:18:25.848Z,7.48
2024-04-25T14:23:30.964Z,7.52
2024-04-25T14:28:48.918Z,7.52
2024-04-25T14:33:53.899Z,7.50
2024-04-25T14:38:58.873Z,7.57
2024-04-25T14:44:10.396Z,7.83
2024-04-25T14:49:15.959Z,7.34
2024-04-25T14:54:20.901Z,7.51
2024-04-25T14:59:27.875Z,7.62
2024-04-25T15:04:36.238Z,7.44
2024-04-25T15:09:41.082Z,7.45
2024-04-25T15:14:45.986Z,7.71
2024-04-25T15:19:51.065Z,8.00
2024-04-25T15:24:56.463Z,7.81
2024-04-25T15:30:01.291Z,8.28
2024-04-25T15:35:08.255Z,7.86
2024-04-25T15:40:14.528Z,7.47
2024-04-25T15:45:19.672Z,7.68
2024-04-25T15:50:24.519Z,7.60
2024-04-25T15:55:29.401Z,7.75
2024-04-25T16:00:34.170Z,7.68
2024-04-25T16:05:39.013Z,7.56
2024-04-25T16:10:46.055Z,7.80
2024-04-25T16:15:52.260Z,7.90
2024-04-25T16:20:57.668Z,8.13
2024-04-25T16:26:03.050Z,8.00
2024-04-25T16:31:12.848Z,7.40
2024-04-25T16:36:21.709Z,7.28
2024-04-25T16:41:26.750Z,7.12
2024-04-25T16:46:32.859Z,7.14
2024-04-25T16:51:37.718Z,7.18
2024-04-25T16:56:42.575Z,7.33
2024-04-25T17:01:47.433Z,7.11
2024-04-25T17:06:54.383Z,7.24
2024-04-25T17:11:59.241Z,7.26
2024-04-25T17:17:04.467Z,7.34
2024-04-25T17:22:11.038Z,7.31
2024-04-25T17:27:18.786Z,6.89
2024-04-25T17:32:24.760Z,7.14
2024-04-25T17:37:29.643Z,6.71
2024-04-25T17:42:34.492Z,6.57
2024-04-25T17:47:42.126Z,6.57
2024-04-25T17:52:47.408Z,6.46
2024-04-25T17:57:52.238Z,6.50
2024-04-25T18:02:59.479Z,6.39
2024-04-25T18:08:04.293Z,6.27
2024-04-25T18:13:09.398Z,6.22
2024-04-25T18:18:14.394Z,6.22
2024-04-25T18:23:19.299Z,6.26
2024-04-25T18:28:24.740Z,6.44
2024-04-25T18:33:29.726Z,6.59
2024-04-25T18:38:34.593Z,6.49
2024-04-25T18:43:40.405Z,6.54
2024-04-25T18:48:45.362Z,6.59
2024-04-25T18:53:50.294Z,6.50
2024-04-25T18:58:55.575Z,6.38
2024-04-25T19:04:00.471Z,6.27
2024-04-25T19:09:05.451Z,6.48
2024-04-25T19:14:11.896Z,6.54
2024-04-25T19:19:17.428Z,6.37
2024-04-25T19:24:23.949Z,6.06
2024-04-25T19:29:31.974Z,6.09
2024-04-25T19:34:38.109Z,6.27
2024-04-25T19:39:42.999Z,6.27
2024-04-25T19:44:48.063Z,6.11
2024-04-25T19:49:54.177Z,6.08
2024-04-25T19:54:59.477Z,5.90
2024-04-25T20:00:04.300Z,5.84
2024-04-25T20:05:10.290Z,5.83
2024-04-25T20:10:15.066Z,5.74
2024-04-25T20:15:19.883Z,5.82
2024-04-25T20:20:40.664Z,5.76
2024-04-25T20:25:45.461Z,5.64
2024-04-25T20:30:50.571Z,5.52
2024-04-25T20:35:55.538Z,5.60
2024-04-25T20:41:00.628Z,5.55
2024-04-25T20:46:05.485Z,5.53
2024-04-25T20:51:10.262Z,5.51
2024-04-25T20:56:15.074Z,5.37
2024-04-25T21:01:19.999Z,5.42
2024-04-25T21:06:24.857Z,5.38
2024-04-25T21:11:29.674Z,5.34
2024-04-25T21:16:41.061Z,5.15
2024-04-25T21:21:49.105Z,5.02
2024-04-25T21:26:54.019Z,4.98
2024-04-25T21:31:59.272Z,4.94
2024-04-25T21:37:04.270Z,4.83
2024-04-25T21:42:10.229Z,4.91
2024-04-25T21:47:15.087Z,4.87
2024-04-25T21:52:20.005Z,4.85
2024-04-25T21:57:25.497Z,4.78
2024-04-25T22:02:30.322Z,4.74
2024-04-25T22:07:35.131Z,4.66
2024-04-25T22:12:40.231Z,4.62
2024-04-25T22:17:45.343Z,4.52
2024-04-25T22:22:50.318Z,4.49
2024-04-25T22:27:55.178Z,4.46
2024-04-25T22:33:00.092Z,4.41
2024-04-25T22:38:05.037Z,4.47
2024-04-25T22:43:09.857Z,4.47
2024-04-25T22:48:14.806Z,4.54
2024-04-25T22:53:19.835Z,4.55
2024-04-25T22:58:24.825Z,4.60
2024-04-25T23:03:31.705Z,4.42
2024-04-25T23:08:37.369Z,4.62
2024-04-25T23:13:42.215Z,4.61
2024-04-25T23:18:46.996Z,4.64
2024-04-25T23:23:51.879Z,4.62
2024-04-25T23:28:56.776Z,4.70
2024-04-25T23:34:01.769Z,4.69
2024-04-25T23:39:07.054Z,4.62
2024-04-25T23:44:11.854Z,4.63
2024-04-25T23:49:16.678Z,4.63
2024-04-25T23:54:21.522Z,4.64
2024-04-25T23:59:26.987Z,4.59
